sensor_id;sensor_type;location;lat;lon;timestamp;pressure;altitude;pressure_sealevel;temperature;humidity
18697;BME280;22617;43.690;27.956;2023-02-18T00:00:24;99286.50;;;5.82;66.77
18697;BME280;22617;43.690;27.956;2023-02-18T00:05:28;99276.31;;;5.88;66.55
18697;BME280;22617;43.690;27.956;2023-02-18T00:10:31;99263.75;;;6.09;66.03
18697;BME280;22617;43.690;27.956;2023-02-18T00:15:37;99261.91;;;6.02;66.00
18697;BME280;22617;43.690;27.956;2023-02-18T00:20:41;99262.38;;;5.83;66.32
18697;BME280;22617;43.690;27.956;2023-02-18T00:25:44;99249.25;;;5.72;66.48
18697;BME280;22617;43.690;27.956;2023-02-18T00:30:50;99242.72;;;5.90;66.18
18697;BME280;22617;43.690;27.956;2023-02-18T00:36:00;99247.66;;;5.79;65.99
18697;BME280;22617;43.690;27.956;2023-02-18T00:41:03;99249.28;;;5.74;66.22
18697;BME280;22617;43.690;27.956;2023-02-18T00:46:09;99252.03;;;5.83;65.80
18697;BME280;22617;43.690;27.956;2023-02-18T00:51:13;99239.97;;;5.85;65.72
18697;BME280;22617;43.690;27.956;2023-02-18T00:56:16;99239.81;;;5.76;66.19
18697;BME280;22617;43.690;27.956;2023-02-18T01:01:21;99237.91;;;5.66;66.55
18697;BME280;22617;43.690;27.956;2023-02-18T01:06:25;99230.09;;;5.63;66.33
18697;BME280;22617;43.690;27.956;2023-02-18T01:11:29;99223.75;;;5.47;66.62
18697;BME280;22617;43.690;27.956;2023-02-18T01:16:33;99220.97;;;5.37;67.09
18697;BME280;22617;43.690;27.956;2023-02-18T01:21:37;99222.59;;;5.33;67.06
18697;BME280;22617;43.690;27.956;2023-02-18T01:26:42;99209.53;;;5.25;67.37
18697;BME280;22617;43.690;27.956;2023-02-18T01:31:47;99196.88;;;5.39;67.10
18697;BME280;22617;43.690;27.956;2023-02-18T01:36:50;99183.25;;;5.46;67.38
18697;BME280;22617;43.690;27.956;2023-02-18T01:41:54;99171.97;;;5.43;67.11
18697;BME280;22617;43.690;27.956;2023-02-18T01:46:59;99161.97;;;5.16;67.74
18697;BME280;22617;43.690;27.956;2023-02-18T01:52:05;99169.88;;;5.23;68.20
18697;BME280;22617;43.690;27.956;2023-02-18T01:57:10;99168.50;;;5.41;67.80
18697;BME280;22617;43.690;27.956;2023-02-18T02:02:19;99179.53;;;5.32;68.24
18697;BME280;22617;43.690;27.956;2023-02-18T02:07:24;99171.84;;;5.35;68.03
18697;BME280;22617;43.690;27.956;2023-02-18T02:12:39;99185.25;;;5.62;67.52
18697;BME280;22617;43.690;27.956;2023-02-18T02:17:56;99191.97;;;5.53;67.98
18697;BME280;22617;43.690;27.956;2023-02-18T02:29:24;99177.72;;;5.73;67.85
18697;BME280;22617;43.690;27.956;2023-02-18T02:34:55;99178.59;;;5.74;67.84
18697;BME280;22617;43.690;27.956;2023-02-18T02:40:08;99180.25;;;5.71;67.55
18697;BME280;22617;43.690;27.956;2023-02-18T02:45:20;99173.41;;;5.74;68.21
18697;BME280;22617;43.690;27.956;2023-02-18T02:50:33;99172.97;;;5.94;67.56
18697;BME280;22617;43.690;27.956;2023-02-18T02:55:42;99159.03;;;5.88;67.72
18697;BME280;22617;43.690;27.956;2023-02-18T03:00:55;99153.06;;;5.92;68.17
18697;BME280;22617;43.690;27.956;2023-02-18T03:06:20;99143.34;;;5.79;68.35
18697;BME280;22617;43.690;27.956;2023-02-18T03:11:34;99137.59;;;5.93;68.06
18697;BME280;22617;43.690;27.956;2023-02-18T03:16:45;99132.63;;;6.07;68.06
18697;BME280;22617;43.690;27.956;2023-02-18T03:21:55;99135.25;;;6.08;68.32
18697;BME280;22617;43.690;27.956;2023-02-18T03:27:06;99138.00;;;6.21;67.38
18697;BME280;22617;43.690;27.956;2023-02-18T03:32:15;99131.97;;;6.19;67.88
18697;BME280;22617;43.690;27.956;2023-02-18T03:37:22;99151.75;;;6.17;68.01
18697;BME280;22617;43.690;27.956;2023-02-18T03:42:26;99147.16;;;6.00;68.56
18697;BME280;22617;43.690;27.956;2023-02-18T03:47:30;99152.28;;;5.96;68.47
18697;BME280;22617;43.690;27.956;2023-02-18T03:52:35;99147.88;;;5.90;68.92
18697;BME280;22617;43.690;27.956;2023-02-18T03:57:39;99133.75;;;5.73;69.64
18697;BME280;22617;43.690;27.956;2023-02-18T04:02:42;99125.25;;;5.79;69.16
18697;BME280;22617;43.690;27.956;2023-02-18T04:07:47;99119.16;;;5.75;69.30
18697;BME280;22617;43.690;27.956;2023-02-18T04:12:51;99108.09;;;5.84;69.39
18697;BME280;22617;43.690;27.956;2023-02-18T04:17:54;99106.63;;;5.98;68.52
18697;BME280;22617;43.690;27.956;2023-02-18T04:22:59;99093.06;;;6.12;68.73
18697;BME280;22617;43.690;27.956;2023-02-18T04:28:02;99087.09;;;6.18;68.31
18697;BME280;22617;43.690;27.956;2023-02-18T04:33:06;99076.06;;;6.31;68.61
18697;BME280;22617;43.690;27.956;2023-02-18T04:38:13;99071.69;;;6.29;68.37
18697;BME280;22617;43.690;27.956;2023-02-18T04:43:17;99072.50;;;6.23;68.56
18697;BME280;22617;43.690;27.956;2023-02-18T04:48:20;99076.06;;;6.31;68.49
18697;BME280;22617;43.690;27.956;2023-02-18T04:53:25;99085.63;;;6.35;68.38
18697;BME280;22617;43.690;27.956;2023-02-18T04:58:29;99082.31;;;6.45;68.29
18697;BME280;22617;43.690;27.956;2023-02-18T05:03:32;99092.78;;;6.54;68.38
18697;BME280;22617;43.690;27.956;2023-02-18T05:08:37;99094.50;;;6.54;68.42
18697;BME280;22617;43.690;27.956;2023-02-18T05:13:40;99098.00;;;6.59;68.39
18697;BME280;22617;43.690;27.956;2023-02-18T05:18:44;99079.88;;;6.57;68.42
18697;BME280;22617;43.690;27.956;2023-02-18T05:23:49;99077.38;;;6.65;68.25
18697;BME280;22617;43.690;27.956;2023-02-18T05:28:52;99073.94;;;6.68;68.25
18697;BME280;22617;43.690;27.956;2023-02-18T05:33:56;99074.88;;;6.73;67.96
18697;BME280;22617;43.690;27.956;2023-02-18T05:39:01;99080.13;;;6.77;67.75
18697;BME280;22617;43.690;27.956;2023-02-18T05:44:04;99065.56;;;6.85;67.57
18697;BME280;22617;43.690;27.956;2023-02-18T05:49:26;99057.72;;;6.82;67.60
18697;BME280;22617;43.690;27.956;2023-02-18T05:54:31;99065.59;;;6.91;67.44
18697;BME280;22617;43.690;27.956;2023-02-18T05:59:35;99056.19;;;6.98;67.47
18697;BME280;22617;43.690;27.956;2023-02-18T06:04:38;99059.50;;;6.86;66.77
18697;BME280;22617;43.690;27.956;2023-02-18T06:09:44;99067.13;;;6.71;67.64
18697;BME280;22617;43.690;27.956;2023-02-18T06:14:48;99079.22;;;6.74;67.98
18697;BME280;22617;43.690;27.956;2023-02-18T06:19:51;99076.59;;;6.71;68.01
18697;BME280;22617;43.690;27.956;2023-02-18T06:24:56;99069.75;;;6.77;67.99
18697;BME280;22617;43.690;27.956;2023-02-18T06:30:00;99067.31;;;6.89;68.39
18697;BME280;22617;43.690;27.956;2023-02-18T06:35:04;99069.19;;;6.99;68.53
18697;BME280;22617;43.690;27.956;2023-02-18T06:40:10;99065.69;;;6.97;68.23
18697;BME280;22617;43.690;27.956;2023-02-18T06:45:13;99072.69;;;7.05;68.08
18697;BME280;22617;43.690;27.956;2023-02-18T06:50:17;99072.81;;;7.20;68.62
18697;BME280;22617;43.690;27.956;2023-02-18T06:55:22;99074.63;;;7.25;69.30
18697;BME280;22617;43.690;27.956;2023-02-18T07:00:25;99071.13;;;7.22;69.97
18697;BME280;22617;43.690;27.956;2023-02-18T07:05:29;99070.41;;;7.33;70.30
18697;BME280;22617;43.690;27.956;2023-02-18T07:10:34;99054.88;;;7.38;70.03
18697;BME280;22617;43.690;27.956;2023-02-18T07:15:37;99039.38;;;7.42;69.42
18697;BME280;22617;43.690;27.956;2023-02-18T07:20:41;99033.38;;;7.50;70.03
18697;BME280;22617;43.690;27.956;2023-02-18T07:25:46;99033.38;;;7.51;69.94
18697;BME280;22617;43.690;27.956;2023-02-18T07:30:49;99024.00;;;7.62;69.35
18697;BME280;22617;43.690;27.956;2023-02-18T07:35:53;99018.84;;;7.67;70.38
18697;BME280;22617;43.690;27.956;2023-02-18T07:40:59;99017.25;;;7.92;69.92
18697;BME280;22617;43.690;27.956;2023-02-18T07:46:05;99020.03;;;8.14;69.40
18697;BME280;22617;43.690;27.956;2023-02-18T07:51:10;99017.66;;;8.55;68.56
18697;BME280;22617;43.690;27.956;2023-02-18T07:56:15;99016.94;;;9.02;67.79
18697;BME280;22617;43.690;27.956;2023-02-18T08:01:19;99018.75;;;9.47;66.50
18697;BME280;22617;43.690;27.956;2023-02-18T08:06:25;99023.03;;;10.08;65.13
18697;BME280;22617;43.690;27.956;2023-02-18T08:11:32;99003.88;;;10.43;63.12
18697;BME280;22617;43.690;27.956;2023-02-18T08:16:36;99007.19;;;10.80;61.93
18697;BME280;22617;43.690;27.956;2023-02-18T08:21:40;98992.22;;;11.15;61.59
18697;BME280;22617;43.690;27.956;2023-02-18T08:26:45;98995.56;;;11.32;60.66
18697;BME280;22617;43.690;27.956;2023-02-18T08:32:02;98998.91;;;11.53;59.44
18697;BME280;22617;43.690;27.956;2023-02-18T08:37:05;99009.31;;;11.59;60.52
18697;BME280;22617;43.690;27.956;2023-02-18T08:42:10;99011.78;;;11.77;59.57
18697;BME280;22617;43.690;27.956;2023-02-18T08:47:13;99002.88;;;12.01;58.94
18697;BME280;22617;43.690;27.956;2023-02-18T08:52:37;99005.94;;;12.41;57.93
18697;BME280;22617;43.690;27.956;2023-02-18T08:57:42;98998.84;;;12.50;56.76
18697;BME280;22617;43.690;27.956;2023-02-18T09:02:45;98999.03;;;12.35;55.77
18697;BME280;22617;43.690;27.956;2023-02-18T09:07:50;99001.91;;;12.12;56.60
18697;BME280;22617;43.690;27.956;2023-02-18T09:12:54;98997.63;;;12.02;57.53
18697;BME280;22617;43.690;27.956;2023-02-18T09:17:58;98984.59;;;11.99;56.70
18697;BME280;22617;43.690;27.956;2023-02-18T09:23:01;98980.28;;;11.95;57.92
18697;BME280;22617;43.690;27.956;2023-02-18T09:28:06;98962.91;;;11.91;57.15
18697;BME280;22617;43.690;27.956;2023-02-18T09:33:10;98944.56;;;11.99;58.42
18697;BME280;22617;43.690;27.956;2023-02-18T09:38:15;98940.94;;;12.12;57.46
18697;BME280;22617;43.690;27.956;2023-02-18T09:43:28;98929.50;;;12.19;57.14
18697;BME280;22617;43.690;27.956;2023-02-18T09:48:35;98920.81;;;12.20;57.54
18697;BME280;22617;43.690;27.956;2023-02-18T09:53:40;98927.81;;;12.15;57.86
18697;BME280;22617;43.690;27.956;2023-02-18T09:58:47;98930.38;;;12.19;59.06
18697;BME280;22617;43.690;27.956;2023-02-18T10:03:52;98940.72;;;12.32;58.08
18697;BME280;22617;43.690;27.956;2023-02-18T10:08:59;98954.50;;;12.43;56.90
18697;BME280;22617;43.690;27.956;2023-02-18T10:14:09;98957.16;;;12.41;57.63
18697;BME280;22617;43.690;27.956;2023-02-18T10:19:21;98943.06;;;12.51;57.71
18697;BME280;22617;43.690;27.956;2023-02-18T10:24:28;98941.22;;;12.59;57.65
18697;BME280;22617;43.690;27.956;2023-02-18T10:29:35;98929.75;;;12.68;58.67
18697;BME280;22617;43.690;27.956;2023-02-18T10:34:40;98922.72;;;12.72;56.93
18697;BME280;22617;43.690;27.956;2023-02-18T10:39:53;98907.03;;;12.72;55.90
18697;BME280;22617;43.690;27.956;2023-02-18T10:45:10;98916.50;;;12.82;56.69
18697;BME280;22617;43.690;27.956;2023-02-18T10:50:24;98899.84;;;12.87;56.22
18697;BME280;22617;43.690;27.956;2023-02-18T10:55:37;98886.63;;;12.98;56.99
18697;BME280;22617;43.690;27.956;2023-02-18T11:00:43;98885.81;;;12.94;56.14
18697;BME280;22617;43.690;27.956;2023-02-18T11:05:49;98877.13;;;12.91;57.26
18697;BME280;22617;43.690;27.956;2023-02-18T11:10:55;98872.75;;;12.91;57.16
18697;BME280;22617;43.690;27.956;2023-02-18T11:16:02;98865.91;;;12.83;57.65
18697;BME280;22617;43.690;27.956;2023-02-18T11:21:20;98859.81;;;12.82;57.66
18697;BME280;22617;43.690;27.956;2023-02-18T11:26:30;98862.44;;;12.82;57.34
18697;BME280;22617;43.690;27.956;2023-02-18T11:31:39;98859.00;;;12.80;58.29
18697;BME280;22617;43.690;27.956;2023-02-18T11:36:44;98865.03;;;12.85;58.62
18697;BME280;22617;43.690;27.956;2023-02-18T11:41:53;98861.50;;;12.86;58.01
18697;BME280;22617;43.690;27.956;2023-02-18T11:47:03;98855.31;;;12.92;58.20
18697;BME280;22617;43.690;27.956;2023-02-18T11:52:16;98856.13;;;12.95;57.97
18697;BME280;22617;43.690;27.956;2023-02-18T11:57:21;98843.81;;;13.03;58.90
18697;BME280;22617;43.690;27.956;2023-02-18T12:02:33;98848.97;;;13.06;58.33
18697;BME280;22617;43.690;27.956;2023-02-18T12:07:42;98855.06;;;13.08;59.14
18697;BME280;22617;43.690;27.956;2023-02-18T12:12:50;98854.16;;;13.13;58.30
18697;BME280;22617;43.690;27.956;2023-02-18T12:18:18;98847.97;;;13.15;59.20
18697;BME280;22617;43.690;27.956;2023-02-18T12:23:32;98841.09;;;13.08;58.93
18697;BME280;22617;43.690;27.956;2023-02-18T12:28:57;98841.88;;;13.15;58.93
18697;BME280;22617;43.690;27.956;2023-02-18T12:34:17;98827.91;;;13.16;59.48
18697;BME280;22617;43.690;27.956;2023-02-18T12:39:35;98832.25;;;13.18;58.83
18697;BME280;22617;43.690;27.956;2023-02-18T12:44:53;98828.69;;;13.22;58.44
18697;BME280;22617;43.690;27.956;2023-02-18T12:50:38;98833.84;;;13.27;58.85
18697;BME280;22617;43.690;27.956;2023-02-18T12:55:59;98820.72;;;13.28;59.64
18697;BME280;22617;43.690;27.956;2023-02-18T13:01:19;98814.63;;;13.28;59.55
18697;BME280;22617;43.690;27.956;2023-02-18T13:06:42;98818.16;;;13.25;59.34
18697;BME280;22617;43.690;27.956;2023-02-18T13:11:55;98825.13;;;13.25;59.95
18697;BME280;22617;43.690;27.956;2023-02-18T13:17:02;98828.63;;;13.25;59.96
18697;BME280;22617;43.690;27.956;2023-02-18T13:22:11;98840.03;;;13.23;60.06
18697;BME280;22617;43.690;27.956;2023-02-18T13:27:19;98827.91;;;13.16;58.96
18697;BME280;22617;43.690;27.956;2023-02-18T13:32:28;98835.03;;;13.04;59.41
18697;BME280;22617;43.690;27.956;2023-02-18T13:37:50;98831.66;;;12.99;60.17
18697;BME280;22617;43.690;27.956;2023-02-18T13:43:16;98843.09;;;12.92;60.30
18697;BME280;22617;43.690;27.956;2023-02-18T13:48:21;98837.06;;;12.87;60.68
18697;BME280;22617;43.690;27.956;2023-02-18T13:53:31;98839.91;;;12.75;61.54
18697;BME280;22617;43.690;27.956;2023-02-18T13:58:40;98833.88;;;12.70;61.59
18697;BME280;22617;43.690;27.956;2023-02-18T14:03:56;98839.16;;;12.65;61.24
18697;BME280;22617;43.690;27.956;2023-02-18T14:14:41;98821.91;;;12.54;61.24
18697;BME280;22617;43.690;27.956;2023-02-18T14:19:52;98819.34;;;12.49;61.21
18697;BME280;22617;43.690;27.956;2023-02-18T14:24:59;98816.03;;;12.38;61.24
18697;BME280;22617;43.690;27.956;2023-02-18T14:30:16;98804.94;;;12.22;62.05
18697;BME280;22617;43.690;27.956;2023-02-18T14:35:26;98797.94;;;12.24;61.73
18697;BME280;22617;43.690;27.956;2023-02-18T14:40:48;98800.66;;;12.17;62.15
18697;BME280;22617;43.690;27.956;2023-02-18T14:46:08;98802.47;;;12.10;62.38
18697;BME280;22617;43.690;27.956;2023-02-18T14:51:14;98797.44;;;11.95;63.15
18697;BME280;22617;43.690;27.956;2023-02-18T14:56:20;98790.47;;;11.97;62.71
18697;BME280;22617;43.690;27.956;2023-02-18T15:01:27;98794.00;;;11.93;62.74
18697;BME280;22617;43.690;27.956;2023-02-18T15:06:32;98788.75;;;11.96;62.55
18697;BME280;22617;43.690;27.956;2023-02-18T15:11:38;98786.31;;;11.84;62.91
18697;BME280;22617;43.690;27.956;2023-02-18T15:16:45;98784.56;;;11.82;62.81
18697;BME280;22617;43.690;27.956;2023-02-18T15:21:50;98785.50;;;11.76;63.02
18697;BME280;22617;43.690;27.956;2023-02-18T15:26:58;98777.69;;;11.76;62.64
18697;BME280;22617;43.690;27.956;2023-02-18T15:32:15;98770.84;;;11.64;62.72
18697;BME280;22617;43.690;27.956;2023-02-18T15:37:19;98770.09;;;11.52;63.25
18697;BME280;22617;43.690;27.956;2023-02-18T15:42:26;98777.22;;;11.41;63.81
18697;BME280;22617;43.690;27.956;2023-02-18T15:47:32;98785.97;;;11.32;64.18
18697;BME280;22617;43.690;27.956;2023-02-18T15:52:37;98779.94;;;11.28;63.93
18697;BME280;22617;43.690;27.956;2023-02-18T15:57:41;98775.69;;;11.18;64.70
18697;BME280;22617;43.690;27.956;2023-02-18T16:02:55;98783.59;;;11.09;64.89
18697;BME280;22617;43.690;27.956;2023-02-18T16:08:00;98788.94;;;10.97;65.04
18697;BME280;22617;43.690;27.956;2023-02-18T16:13:12;98790.69;;;10.95;65.44
18697;BME280;22617;43.690;27.956;2023-02-18T16:18:23;98786.38;;;10.92;65.48
18697;BME280;22617;43.690;27.956;2023-02-18T16:23:35;98784.66;;;10.90;65.82
18697;BME280;22617;43.690;27.956;2023-02-18T16:28:41;98794.13;;;10.99;65.33
18697;BME280;22617;43.690;27.956;2023-02-18T16:33:46;98800.25;;;10.98;65.26
18697;BME280;22617;43.690;27.956;2023-02-18T16:38:50;98814.19;;;10.92;65.66
18697;BME280;22617;43.690;27.956;2023-02-18T16:43:54;98804.75;;;10.79;65.71
18697;BME280;22617;43.690;27.956;2023-02-18T16:48:59;98811.78;;;10.65;66.33
18697;BME280;22617;43.690;27.956;2023-02-18T16:54:03;98816.06;;;10.76;66.22
18697;BME280;22617;43.690;27.956;2023-02-18T16:59:06;98814.31;;;10.77;66.48
18697;BME280;22617;43.690;27.956;2023-02-18T17:04:12;98818.81;;;10.57;67.45
18697;BME280;22617;43.690;27.956;2023-02-18T17:09:18;98825.81;;;10.45;67.73
18697;BME280;22617;43.690;27.956;2023-02-18T17:14:23;98823.22;;;10.45;67.34
18697;BME280;22617;43.690;27.956;2023-02-18T17:19:27;98819.75;;;10.49;67.02
18697;BME280;22617;43.690;27.956;2023-02-18T17:24:31;98827.59;;;10.45;67.46
18697;BME280;22617;43.690;27.956;2023-02-18T17:29:34;98820.63;;;10.42;67.30
18697;BME280;22617;43.690;27.956;2023-02-18T17:34:39;98814.56;;;10.42;68.05
18697;BME280;22617;43.690;27.956;2023-02-18T17:39:43;98825.84;;;10.44;67.71
18697;BME280;22617;43.690;27.956;2023-02-18T17:44:49;98817.06;;;10.56;67.66
18697;BME280;22617;43.690;27.956;2023-02-18T17:49:54;98811.06;;;10.49;67.50
18697;BME280;22617;43.690;27.956;2023-02-18T17:54:57;98825.00;;;10.39;67.80
18697;BME280;22617;43.690;27.956;2023-02-18T18:00:00;98825.88;;;10.36;68.16
18697;BME280;22617;43.690;27.956;2023-02-18T18:05:16;98832.84;;;10.31;68.01
18697;BME280;22617;43.690;27.956;2023-02-18T18:10:22;98823.31;;;10.33;68.15
18697;BME280;22617;43.690;27.956;2023-02-18T18:15:31;98824.22;;;10.31;68.30
18697;BME280;22617;43.690;27.956;2023-02-18T18:20:38;98827.69;;;10.22;68.34
18697;BME280;22617;43.690;27.956;2023-02-18T18:25:43;98826.84;;;10.19;68.23
18697;BME280;22617;43.690;27.956;2023-02-18T18:30:49;98831.22;;;10.09;68.77
18697;BME280;22617;43.690;27.956;2023-02-18T18:35:56;98826.03;;;10.06;68.61
18697;BME280;22617;43.690;27.956;2023-02-18T18:40:59;98823.44;;;10.00;69.21
18697;BME280;22617;43.690;27.956;2023-02-18T18:46:03;98834.72;;;10.05;69.22
18697;BME280;22617;43.690;27.956;2023-02-18T18:51:13;98839.03;;;10.03;68.84
18697;BME280;22617;43.690;27.956;2023-02-18T18:56:20;98839.06;;;10.01;69.43
18697;BME280;22617;43.690;27.956;2023-02-18T19:01:24;98832.94;;;10.10;69.58
18697;BME280;22617;43.690;27.956;2023-02-18T19:06:31;98834.72;;;10.06;69.42
18697;BME280;22617;43.690;27.956;2023-02-18T19:11:36;98834.72;;;10.06;69.63
18697;BME280;22617;43.690;27.956;2023-02-18T19:16:41;98835.56;;;10.08;69.75
18697;BME280;22617;43.690;27.956;2023-02-18T19:21:49;98839.03;;;10.09;69.76
18697;BME280;22617;43.690;27.956;2023-02-18T19:26:53;98839.06;;;10.04;70.52
18697;BME280;22617;43.690;27.956;2023-02-18T19:31:57;98831.19;;;10.15;69.68
18697;BME280;22617;43.690;27.956;2023-02-18T19:37:02;98819.06;;;10.20;69.76
18697;BME280;22617;43.690;27.956;2023-02-18T19:42:05;98832.94;;;10.13;69.96
18697;BME280;22617;43.690;27.956;2023-02-18T19:47:11;98832.97;;;10.04;70.42
18697;BME280;22617;43.690;27.956;2023-02-18T19:52:16;98839.09;;;9.95;70.53
18697;BME280;22617;43.690;27.956;2023-02-18T19:57:21;98838.25;;;9.92;70.79
18697;BME280;22617;43.690;27.956;2023-02-18T20:02:26;98833.81;;;10.07;70.88
18697;BME280;22617;43.690;27.956;2023-02-18T20:07:33;98834.66;;;10.19;70.13
18697;BME280;22617;43.690;27.956;2023-02-18T20:12:37;98843.28;;;10.34;69.59
18697;BME280;22617;43.690;27.956;2023-02-18T20:17:41;98838.06;;;10.34;70.09
18697;BME280;22617;43.690;27.956;2023-02-18T20:22:46;98841.53;;;10.32;69.81
18697;BME280;22617;43.690;27.956;2023-02-18T20:27:49;98832.88;;;10.36;69.70
18697;BME280;22617;43.690;27.956;2023-02-18T20:33:02;98833.81;;;10.18;70.23
18697;BME280;22617;43.690;27.956;2023-02-18T20:38:08;98838.16;;;10.21;70.35
18697;BME280;22617;43.690;27.956;2023-02-18T20:43:11;98832.97;;;10.07;70.78
18697;BME280;22617;43.690;27.956;2023-02-18T20:48:15;98830.38;;;10.05;70.65
18697;BME280;22617;43.690;27.956;2023-02-18T20:53:20;98842.63;;;9.81;70.91
18697;BME280;22617;43.690;27.956;2023-02-18T20:58:24;98847.84;;;9.72;71.29
18697;BME280;22617;43.690;27.956;2023-02-18T21:03:29;98846.16;;;9.55;72.05
18697;BME280;22617;43.690;27.956;2023-02-18T21:08:35;98831.47;;;9.42;71.87
18697;BME280;22617;43.690;27.956;2023-02-18T21:13:41;98831.47;;;9.39;71.71
18697;BME280;22617;43.690;27.956;2023-02-18T21:18:45;98835.75;;;9.51;71.57
18697;BME280;22617;43.690;27.956;2023-02-18T21:23:50;98831.50;;;9.35;71.73
18697;BME280;22617;43.690;27.956;2023-02-18T21:28:56;98838.41;;;9.28;71.31
18697;BME280;22617;43.690;27.956;2023-02-18T21:33:59;98828.88;;;9.21;71.94
18697;BME280;22617;43.690;27.956;2023-02-18T21:39:06;98838.44;;;9.19;71.65
18697;BME280;22617;43.690;27.956;2023-02-18T21:44:10;98838.44;;;9.24;71.42
18697;BME280;22617;43.690;27.956;2023-02-18T21:49:13;98835.81;;;9.27;72.00
18697;BME280;22617;43.690;27.956;2023-02-18T21:54:21;98837.56;;;9.18;72.25
18697;BME280;22617;43.690;27.956;2023-02-18T21:59:26;98828.03;;;9.13;72.20
18697;BME280;22617;43.690;27.956;2023-02-18T22:04:31;98816.78;;;8.99;72.32
18697;BME280;22617;43.690;27.956;2023-02-18T22:09:37;98817.69;;;8.87;72.64
18697;BME280;22617;43.690;27.956;2023-02-18T22:14:41;98815.94;;;8.91;72.75
18697;BME280;22617;43.690;27.956;2023-02-18T22:19:44;98817.66;;;8.95;72.75
18697;BME280;22617;43.690;27.956;2023-02-18T22:24:50;98803.78;;;8.84;73.22
18697;BME280;22617;43.690;27.956;2023-02-18T22:29:53;98808.13;;;8.91;73.44
18697;BME280;22617;43.690;27.956;2023-02-18T22:34:57;98805.53;;;8.91;72.79
18697;BME280;22617;43.690;27.956;2023-02-18T22:40:02;98808.09;;;9.07;72.86
18697;BME280;22617;43.690;27.956;2023-02-18T22:45:06;98795.97;;;9.17;72.52
18697;BME280;22617;43.690;27.956;2023-02-18T22:50:10;98795.09;;;9.18;72.98
18697;BME280;22617;43.690;27.956;2023-02-18T22:55:15;98799.44;;;9.25;72.62
18697;BME280;22617;43.690;27.956;2023-02-18T23:00:21;98802.91;;;9.18;72.21
18697;BME280;22617;43.690;27.956;2023-02-18T23:05:26;98802.91;;;9.24;71.93
18697;BME280;22617;43.690;27.956;2023-02-18T23:10:31;98802.88;;;9.27;72.81
18697;BME280;22617;43.690;27.956;2023-02-18T23:15:34;98794.19;;;9.36;72.38
18697;BME280;22617;43.690;27.956;2023-02-18T23:20:37;98794.19;;;9.37;72.89
18697;BME280;22617;43.690;27.956;2023-02-18T23:26:00;98793.28;;;9.50;71.69
18697;BME280;22617;43.690;27.956;2023-02-18T23:31:04;98783.75;;;9.45;72.23
18697;BME280;22617;43.690;27.956;2023-02-18T23:36:09;98791.53;;;9.52;71.88
18697;BME280;22617;43.690;27.956;2023-02-18T23:41:15;98799.34;;;9.46;72.45
18697;BME280;22617;43.690;27.956;2023-02-18T23:46:21;98785.53;;;9.40;72.32
18697;BME280;22617;43.690;27.956;2023-02-18T23:51:25;98762.06;;;9.53;72.57
18697;BME280;22617;43.690;27.956;2023-02-18T23:56:30;98755.13;;;9.51;72.49
